Time;durP1;ratioP1;P1;durP2;ratioP2;P2;SDS_P1;SDS_P2;PMS_P1;PMS_P2;Temp;Humidity;BMP_temperature;BMP_pressure;BME280_temperature;BME280_humidity;BME280_pressure;Samples;Min_cycle;Max_cycle;Signal;HPM_P1;HPM_P2
2021/12/25 00:00:12;;;;;;;2.83;1.00;;;-0.60;99.90;;;;;;5071048;28;20202;-72
2021/12/25 00:02:40;;;;;;;0.77;0.77;;;-0.60;99.90;;;;;;5070903;28;20244;-72
2021/12/25 00:05:08;;;;;;;1.00;0.60;;;-0.60;99.90;;;;;;5072024;28;20210;-73
2021/12/25 00:07:35;;;;;;;0.30;0.27;;;-0.60;99.90;;;;;;5064172;28;20536;-72
2021/12/25 00:10:02;;;;;;;4.70;1.00;;;-0.60;99.90;;;;;;5051812;28;20222;-71
2021/12/25 00:12:31;;;;;;;1.80;0.40;;;-0.70;99.90;;;;;;5050803;28;20661;-73
2021/12/25 00:14:58;;;;;;;2.63;0.70;;;-0.60;99.90;;;;;;5052087;28;20199;-72
2021/12/25 00:17:26;;;;;;;0.77;0.57;;;-0.70;99.90;;;;;;5051696;28;20195;-72
2021/12/25 00:19:53;;;;;;;1.83;0.80;;;-0.70;99.90;;;;;;5050437;28;20562;-72
2021/12/25 00:22:21;;;;;;;2.67;0.90;;;-0.70;99.90;;;;;;5054322;28;20194;-65
2021/12/25 00:24:48;;;;;;;1.27;0.90;;;-0.70;99.90;;;;;;5053037;28;20237;-72
2021/12/25 00:27:36;;;;;;;1.77;0.93;;;-0.70;99.90;;;;;;5051943;28;20207;-72
2021/12/25 00:30:19;;;;;;;2.73;0.93;;;-0.70;99.90;;;;;;5051681;28;20230;-72
2021/12/25 00:32:53;;;;;;;1.83;0.93;;;-0.70;99.90;;;;;;5049719;28;20214;-72
2021/12/25 00:35:21;;;;;;;1.53;1.20;;;-0.60;99.90;;;;;;5043940;28;20550;-72
2021/12/25 00:37:48;;;;;;;2.63;1.53;;;-0.70;99.90;;;;;;5042266;28;20207;-72
2021/12/25 00:40:17;;;;;;;1.80;1.37;;;-0.60;99.90;;;;;;5050300;28;20249;-67
2021/12/25 00:42:44;;;;;;;3.37;1.57;;;-0.60;99.90;;;;;;5050591;28;20206;-67
2021/12/25 00:45:13;;;;;;;3.63;1.60;;;-0.60;99.90;;;;;;5054069;28;20299;-67
2021/12/25 00:47:40;;;;;;;1.47;1.10;;;-0.50;99.90;;;;;;5054750;28;20249;-67
2021/12/25 00:50:08;;;;;;;0.37;0.33;;;-0.60;99.90;;;;;;5054996;28;20280;-67
2021/12/25 00:52:35;;;;;;;1.37;0.40;;;-0.60;99.90;;;;;;5054614;28;20469;-67
2021/12/25 00:55:04;;;;;;;0.13;0.13;;;-0.60;99.90;;;;;;5072958;28;20199;-67
2021/12/25 00:57:32;;;;;;;0.27;0.27;;;-0.70;99.90;;;;;;5074931;28;20644;-67
2021/12/25 00:59:59;;;;;;;0.23;0.23;;;-0.60;99.90;;;;;;5058991;28;20195;-67
2021/12/25 01:02:27;;;;;;;4.03;0.60;;;-0.60;99.90;;;;;;5053776;28;20203;-67
2021/12/25 01:04:54;;;;;;;1.73;0.70;;;-0.70;99.90;;;;;;5054204;28;20199;-67
2021/12/25 01:07:21;;;;;;;1.33;0.50;;;-0.70;99.90;;;;;;5054834;28;20633;-67
2021/12/25 01:09:48;;;;;;;0.93;0.67;;;-0.70;99.90;;;;;;5054430;28;20284;-67
2021/12/25 01:12:16;;;;;;;1.00;0.30;;;-0.80;99.90;;;;;;5053917;28;20207;-67
2021/12/25 01:14:47;;;;;;;0.83;0.20;;;-0.80;99.90;;;;;;5054278;28;20243;-67
2021/12/25 01:20:32;;;;;;;2.73;0.20;;;-0.90;99.90;;;;;;5052835;28;20202;-67
2021/12/25 01:26:31;;;;;;;0.20;0.20;;;-0.90;99.90;;;;;;5011962;28;20196;-67
2021/12/25 01:29:20;;;;;;;2.00;0.70;;;-0.90;99.90;;;;;;5017891;28;20214;-67
2021/12/25 01:31:56;;;;;;;0.23;0.23;;;-1.00;99.90;;;;;;5050288;28;20697;-67
2021/12/25 01:35:01;;;;;;;1.17;0.10;;;-0.90;99.90;;;;;;5056044;28;20203;-68
2021/12/25 01:37:36;;;;;;;0.77;0.53;;;-0.90;99.90;;;;;;5053981;28;20202;-67
2021/12/25 01:40:20;;;;;;;2.33;0.40;;;-1.00;99.90;;;;;;5053993;28;20570;-67
2021/12/25 01:48:17;;;;;;;0.67;0.43;;;-1.00;99.90;;;;;;5053329;28;20202;-67
2021/12/25 01:50:44;;;;;;;2.57;0.70;;;-1.00;99.90;;;;;;5053742;28;20273;-67
2021/12/25 01:53:13;;;;;;;1.90;0.40;;;-1.00;99.90;;;;;;5053089;28;20269;-67
2021/12/25 01:55:40;;;;;;;0.97;0.63;;;-1.10;99.90;;;;;;5053301;28;20264;-67
2021/12/25 01:58:07;;;;;;;1.07;0.87;;;-1.10;99.90;;;;;;5054205;28;20548;-67
2021/12/25 02:00:38;;;;;;;0.37;0.33;;;-1.20;99.90;;;;;;5074085;28;20644;-67
2021/12/25 02:03:08;;;;;;;0.93;0.23;;;-1.10;99.90;;;;;;5058809;28;20241;-67
2021/12/25 02:05:35;;;;;;;0.53;0.40;;;-1.20;99.90;;;;;;5052506;28;20207;-67
2021/12/25 02:08:02;;;;;;;1.13;0.30;;;-1.10;99.90;;;;;;5055208;28;20195;-67
2021/12/25 02:10:31;;;;;;;0.40;0.30;;;-1.20;99.90;;;;;;5074074;28;20258;-67
2021/12/25 02:12:58;;;;;;;1.17;0.80;;;-1.20;99.90;;;;;;5060304;28;20203;-67
2021/12/25 02:15:27;;;;;;;1.60;0.20;;;-1.30;99.90;;;;;;5053539;28;20207;-67
2021/12/25 02:18:07;;;;;;;0.10;0.10;;;-1.30;99.90;;;;;;5053017;28;20675;-67
2021/12/25 02:20:44;;;;;;;0.50;0.20;;;-1.30;99.90;;;;;;5067124;28;20209;-67
2021/12/25 02:23:14;;;;;;;0.10;0.10;;;-1.20;99.90;;;;;;5052940;28;20207;-66
2021/12/25 02:25:42;;;;;;;0.17;0.17;;;-1.40;99.90;;;;;;5053651;28;20641;-72
2021/12/25 02:28:13;;;;;;;0.63;0.20;;;-1.50;99.90;;;;;;5052560;28;20222;-73
2021/12/25 02:30:40;;;;;;;0.20;0.20;;;-1.40;99.90;;;;;;5053759;28;20735;-73
2021/12/25 02:33:07;;;;;;;0.67;0.30;;;-1.40;99.90;;;;;;5050813;28;20207;-73
2021/12/25 02:35:36;;;;;;;0.27;0.27;;;-1.40;99.90;;;;;;5053136;28;20203;-73
2021/12/25 02:38:04;;;;;;;0.40;0.27;;;-1.50;99.90;;;;;;5054484;28;20226;-73
2021/12/25 02:40:31;;;;;;;0.43;0.30;;;-1.50;99.90;;;;;;5073751;28;20202;-73
2021/12/25 02:42:59;;;;;;;0.30;0.13;;;-1.50;99.90;;;;;;5059760;28;20249;-72
2021/12/25 02:45:26;;;;;;;0.20;0.00;;;-1.60;99.40;;;;;;5053611;28;20458;-73
2021/12/25 02:47:55;;;;;;;1.33;0.17;;;-1.60;99.90;;;;;;5050682;28;20195;-73
2021/12/25 02:50:24;;;;;;;0.73;0.20;;;-1.60;99.90;;;;;;5064770;28;20199;-73
2021/12/25 02:52:53;;;;;;;1.20;0.13;;;-1.70;99.90;;;;;;5051503;28;20231;-73
2021/12/25 02:55:20;;;;;;;0.20;0.10;;;-1.70;99.90;;;;;;5052580;28;20715;-73
2021/12/25 02:57:51;;;;;;;0.00;0.00;;;-1.70;99.90;;;;;;5053081;28;20202;-73
2021/12/25 03:00:18;;;;;;;1.20;0.10;;;-1.80;99.70;;;;;;5052194;28;20264;-65
2021/12/25 03:02:45;;;;;;;0.07;0.00;;;-1.80;98.80;;;;;;5052044;28;20603;-65
2021/12/25 03:05:13;;;;;;;0.40;0.20;;;-1.80;99.90;;;;;;5065230;28;20267;-66
2021/12/25 03:07:40;;;;;;;1.87;0.33;;;-1.80;99.90;;;;;;5036699;28;20191;-65
2021/12/25 03:10:10;;;;;;;0.37;0.03;;;-1.80;99.90;;;;;;5052680;28;20594;-66
2021/12/25 03:12:49;;;;;;;0.57;0.20;;;-1.80;99.90;;;;;;5051627;28;20815;-65
2021/12/25 03:15:26;;;;;;;1.03;0.63;;;-1.80;99.90;;;;;;5052908;28;20284;-65
2021/12/25 03:17:54;;;;;;;1.17;0.10;;;-1.80;99.90;;;;;;5051685;28;20244;-65
2021/12/25 03:20:22;;;;;;;0.83;0.30;;;-1.70;99.90;;;;;;5053178;28;20203;-66
2021/12/25 03:22:49;;;;;;;0.87;0.10;;;-1.80;99.90;;;;;;5052163;28;20661;-65
2021/12/25 03:25:19;;;;;;;0.40;0.30;;;-1.80;99.90;;;;;;5052248;28;20199;-66
2021/12/25 03:27:47;;;;;;;0.00;0.00;;;-1.80;99.90;;;;;;5050986;28;20207;-66
2021/12/25 03:30:16;;;;;;;0.43;0.30;;;-1.80;99.90;;;;;;5051744;28;20290;-66
2021/12/25 03:32:44;;;;;;;1.80;0.53;;;-1.80;99.90;;;;;;5051358;28;20272;-66
2021/12/25 03:35:11;;;;;;;0.40;0.30;;;-1.90;99.90;;;;;;5055488;28;20252;-65
2021/12/25 03:37:38;;;;;;;0.20;0.20;;;-1.90;99.90;;;;;;5051692;28;20475;-66
2021/12/25 03:40:06;;;;;;;0.97;0.20;;;-1.90;99.90;;;;;;5058007;28;20248;-66
2021/12/25 03:42:35;;;;;;;2.03;0.20;;;-1.90;99.90;;;;;;5054154;28;20703;-66
2021/12/25 03:45:02;;;;;;;1.80;0.40;;;-1.90;99.90;;;;;;5050345;28;20277;-66
2021/12/25 03:47:34;;;;;;;4.70;0.57;;;-2.00;99.90;;;;;;5052351;28;20248;-66
2021/12/25 03:58:21;;;;;;;2.87;0.57;;;-2.00;99.90;;;;;;5048774;28;20202;-66
2021/12/25 04:00:49;;;;;;;0.00;0.00;;;-2.00;99.90;;;;;;5050665;28;20302;-66
2021/12/25 04:03:24;;;;;;;0.27;0.10;;;-2.10;99.90;;;;;;5049652;28;20206;-66
2021/12/25 04:05:51;;;;;;;0.53;0.23;;;-2.00;99.90;;;;;;5050043;28;20618;-66
2021/12/25 04:08:23;;;;;;;0.17;0.17;;;-2.10;99.90;;;;;;5050087;28;20249;-66
2021/12/25 04:10:56;;;;;;;0.07;0.00;;;-2.10;99.90;;;;;;5051307;28;20707;-66
2021/12/25 04:13:24;;;;;;;1.33;0.40;;;-2.10;99.90;;;;;;5050137;28;20207;-65
2021/12/25 04:15:51;;;;;;;0.00;0.00;;;-2.20;99.90;;;;;;5050912;28;20280;-66
2021/12/25 04:18:20;;;;;;;1.97;0.50;;;-2.20;99.90;;;;;;5051250;28;20249;-66
2021/12/25 04:20:47;;;;;;;0.30;0.30;;;-2.20;99.90;;;;;;5050564;28;20214;-66
2021/12/25 04:23:22;;;;;;;4.00;0.47;;;-2.20;99.90;;;;;;5049175;28;20202;-65
2021/12/25 04:25:49;;;;;;;0.00;0.00;;;-2.30;99.90;;;;;;5051723;28;20236;-65
2021/12/25 04:28:27;;;;;;;1.93;0.30;;;-2.30;99.90;;;;;;5056340;28;20614;-66
2021/12/25 04:31:10;;;;;;;0.27;0.13;;;-2.20;99.90;;;;;;5062261;28;20224;-66
2021/12/25 05:03:53;;;;;;;5.07;0.80;;;-2.80;99.90;;;;;;5052855;28;20209;-66
2021/12/25 05:06:23;;;;;;;1.60;0.70;;;-2.70;99.90;;;;;;5043916;28;20582;-65
2021/12/25 05:08:50;;;;;;;1.00;0.53;;;-2.80;99.90;;;;;;5051623;28;20215;-66
2021/12/25 05:11:17;;;;;;;1.17;0.43;;;-2.80;99.90;;;;;;5056358;28;20498;-66
2021/12/25 05:13:46;;;;;;;1.67;0.80;;;-2.80;99.90;;;;;;5048792;28;20199;-66
2021/12/25 05:16:14;;;;;;;1.17;0.40;;;-2.80;99.90;;;;;;5051815;28;20207;-66
2021/12/25 05:18:41;;;;;;;1.90;0.40;;;-2.80;99.90;;;;;;5051635;28;20199;-66
2021/12/25 05:21:10;;;;;;;0.33;0.20;;;-2.90;99.90;;;;;;5049394;28;20202;-66
2021/12/25 05:23:37;;;;;;;1.63;0.70;;;-2.90;99.90;;;;;;5049825;28;20210;-66
2021/12/25 05:26:05;;;;;;;0.93;0.30;;;-2.90;99.90;;;;;;5054089;28;20252;-66
2021/12/25 05:28:39;;;;;;;0.47;0.47;;;-3.00;99.90;;;;;;5052150;28;20215;-66
2021/12/25 05:31:07;;;;;;;0.50;0.23;;;-3.00;99.90;;;;;;5044185;28;20234;-66
2021/12/25 05:33:35;;;;;;;0.50;0.40;;;-2.90;99.90;;;;;;5054096;28;20705;-66
2021/12/25 05:36:02;;;;;;;0.93;0.10;;;-3.00;99.90;;;;;;5054116;28;20613;-66
2021/12/25 05:38:31;;;;;;;0.10;0.10;;;-3.00;99.90;;;;;;5056054;28;20566;-66
2021/12/25 05:40:58;;;;;;;0.30;0.20;;;-3.00;99.90;;;;;;5057363;28;20203;-66
2021/12/25 05:43:25;;;;;;;1.07;0.40;;;-3.00;99.90;;;;;;5057503;28;20207;-66
2021/12/25 05:45:52;;;;;;;0.87;0.33;;;-3.10;99.90;;;;;;5050989;28;20607;-66
2021/12/25 05:48:19;;;;;;;2.13;0.80;;;-3.10;99.90;;;;;;5053734;28;20684;-66
2021/12/25 05:50:46;;;;;;;1.80;0.60;;;-3.10;99.90;;;;;;5053598;28;20198;-72
2021/12/25 05:53:13;;;;;;;0.90;0.43;;;-3.00;99.90;;;;;;5049703;28;20230;-73
2021/12/25 05:55:42;;;;;;;0.40;0.30;;;-3.20;99.90;;;;;;5052804;28;20252;-72
2021/12/25 05:58:09;;;;;;;0.93;0.27;;;-3.10;99.90;;;;;;5052835;28;20207;-73
2021/12/25 06:00:37;;;;;;;1.57;0.40;;;-3.10;99.90;;;;;;5053876;28;20203;-72
2021/12/25 06:03:04;;;;;;;0.13;0.13;;;-3.20;99.90;;;;;;5053406;28;20207;-72
2021/12/25 06:05:32;;;;;;;0.67;0.33;;;-3.10;99.90;;;;;;5059045;28;20256;-72
2021/12/25 06:07:59;;;;;;;0.30;0.23;;;-3.10;99.90;;;;;;5057649;28;20199;-72
2021/12/25 06:10:26;;;;;;;1.13;0.30;;;-3.10;99.90;;;;;;5050006;28;20241;-73
2021/12/25 06:12:56;;;;;;;0.50;0.20;;;-3.20;99.90;;;;;;5050231;28;20254;-72
2021/12/25 06:15:23;;;;;;;0.97;0.50;;;-3.20;99.90;;;;;;5054167;28;20260;-72
2021/12/25 06:17:50;;;;;;;0.20;0.20;;;-3.20;99.90;;;;;;5053219;28;20204;-72
2021/12/25 06:20:18;;;;;;;1.20;0.20;;;-3.20;99.90;;;;;;5053917;28;20276;-72
2021/12/25 06:22:45;;;;;;;0.37;0.30;;;-3.20;99.90;;;;;;5049863;28;20211;-72
2021/12/25 06:25:12;;;;;;;0.50;0.20;;;-3.30;99.90;;;;;;5055853;28;20206;-73
2021/12/25 06:27:39;;;;;;;1.10;0.50;;;-3.30;99.90;;;;;;5050863;28;20543;-72
2021/12/25 06:30:09;;;;;;;2.93;0.53;;;-3.20;99.90;;;;;;5062031;28;20213;-72
2021/12/25 06:32:36;;;;;;;1.30;0.40;;;-3.30;99.90;;;;;;5058012;28;20226;-72
2021/12/25 06:35:04;;;;;;;0.63;0.30;;;-3.30;99.90;;;;;;5058014;28;20222;-72
2021/12/25 06:37:31;;;;;;;3.87;0.63;;;-3.30;99.90;;;;;;5057284;28;20707;-72
2021/12/25 06:39:58;;;;;;;0.27;0.10;;;-3.30;99.90;;;;;;5060947;28;20207;-72
2021/12/25 06:42:25;;;;;;;0.10;0.10;;;-3.30;99.90;;;;;;5050457;28;20202;-73
2021/12/25 06:44:55;;;;;;;3.30;0.60;;;-3.30;99.90;;;;;;5054706;28;20248;-72
2021/12/25 06:47:23;;;;;;;3.37;1.30;;;-3.30;99.90;;;;;;5062055;28;20723;-72
2021/12/25 06:49:50;;;;;;;1.27;0.53;;;-3.40;99.90;;;;;;5049375;28;20249;-74
2021/12/25 06:52:17;;;;;;;2.97;1.60;;;-3.40;99.90;;;;;;5052350;28;20215;-72
2021/12/25 06:54:44;;;;;;;2.27;0.70;;;-3.30;99.90;;;;;;5054685;28;20482;-72
2021/12/25 06:57:11;;;;;;;1.03;0.40;;;-3.30;99.90;;;;;;5049903;28;20264;-73
2021/12/25 06:59:38;;;;;;;1.00;0.70;;;-3.30;99.90;;;;;;5051906;28;20292;-72
2021/12/25 07:02:05;;;;;;;3.17;0.80;;;-3.30;99.90;;;;;;5050729;28;20203;-73
2021/12/25 07:04:34;;;;;;;2.33;0.60;;;-3.40;99.90;;;;;;5054598;28;20226;-72
2021/12/25 07:07:01;;;;;;;1.13;0.20;;;-3.40;99.90;;;;;;5057672;28;20247;-72
2021/12/25 07:09:28;;;;;;;1.03;0.50;;;-3.40;99.90;;;;;;5058962;28;20203;-73
2021/12/25 07:11:55;;;;;;;0.87;0.20;;;-3.40;99.90;;;;;;5051497;28;20336;-72
2021/12/25 07:14:22;;;;;;;1.27;0.77;;;-3.40;99.90;;;;;;5051298;28;20207;-72
2021/12/25 07:16:49;;;;;;;1.97;0.40;;;-3.40;99.90;;;;;;5054785;28;20276;-72
2021/12/25 07:19:16;;;;;;;0.70;0.33;;;-3.40;99.90;;;;;;5052492;28;20202;-72
2021/12/25 07:21:45;;;;;;;0.73;0.23;;;-3.50;99.90;;;;;;5048465;28;20206;-72
2021/12/25 07:24:14;;;;;;;3.13;0.23;;;-3.40;99.90;;;;;;5053323;28;20623;-72
2021/12/25 07:26:41;;;;;;;0.20;0.20;;;-3.50;99.90;;;;;;5051139;28;20638;-72
2021/12/25 07:29:09;;;;;;;1.63;0.43;;;-3.50;99.90;;;;;;5051433;28;20257;-72
2021/12/25 07:31:36;;;;;;;0.50;0.30;;;-3.50;99.90;;;;;;5061924;28;20586;-72
2021/12/25 07:34:03;;;;;;;0.20;0.20;;;-3.50;99.90;;;;;;5056868;28;20647;-72
2021/12/25 07:36:30;;;;;;;0.43;0.40;;;-3.50;99.90;;;;;;5051362;28;20661;-72
2021/12/25 07:39:00;;;;;;;3.23;1.20;;;-3.50;99.90;;;;;;5051969;28;20194;-72
2021/12/25 07:41:27;;;;;;;2.13;0.83;;;-3.50;99.90;;;;;;5058897;28;20206;-73
2021/12/25 07:43:54;;;;;;;1.53;0.60;;;-3.50;99.90;;;;;;5055764;28;20649;-72
2021/12/25 07:46:22;;;;;;;2.03;0.47;;;-3.50;99.90;;;;;;5051421;28;20203;-72
2021/12/25 07:48:49;;;;;;;0.23;0.23;;;-3.50;99.90;;;;;;5056864;28;20218;-72
2021/12/25 07:51:16;;;;;;;0.20;0.17;;;-3.50;99.90;;;;;;5058445;28;20619;-72
2021/12/25 07:53:45;;;;;;;0.30;0.20;;;-3.50;99.90;;;;;;5056536;28;20218;-73
2021/12/25 07:56:14;;;;;;;1.17;0.60;;;-3.50;99.90;;;;;;5060450;28;20211;-72
2021/12/25 07:58:43;;;;;;;1.33;0.37;;;-3.50;99.90;;;;;;5051507;28;20234;-73
2021/12/25 08:01:10;;;;;;;3.37;0.70;;;-3.50;99.90;;;;;;5054483;28;20672;-72
2021/12/25 08:03:37;;;;;;;1.53;0.40;;;-3.50;99.90;;;;;;5060092;28;20647;-72
2021/12/25 08:06:05;;;;;;;1.57;0.67;;;-3.50;99.90;;;;;;5053067;28;20202;-73
2021/12/25 08:08:32;;;;;;;1.37;0.60;;;-3.50;99.90;;;;;;5043322;28;20653;-72
2021/12/25 08:10:59;;;;;;;1.13;0.60;;;-3.20;99.90;;;;;;5050857;28;20256;-72
2021/12/25 08:13:27;;;;;;;2.00;0.73;;;-3.40;99.90;;;;;;5051467;28;20258;-73
2021/12/25 08:15:54;;;;;;;0.70;0.50;;;-3.40;99.90;;;;;;5047880;28;20204;-73
2021/12/25 08:18:21;;;;;;;1.73;1.00;;;-3.40;99.90;;;;;;5053212;28;20235;-72
2021/12/25 08:20:48;;;;;;;1.90;1.20;;;-3.30;99.90;;;;;;5057507;28;20215;-72
2021/12/25 08:23:16;;;;;;;3.73;1.00;;;-3.30;99.90;;;;;;5046987;28;20210;-73
2021/12/25 08:25:43;;;;;;;3.40;1.60;;;-3.20;99.90;;;;;;5051895;28;20203;-73
2021/12/25 08:28:10;;;;;;;2.97;1.43;;;-3.10;99.90;;;;;;5055849;28;20211;-73
2021/12/25 08:30:38;;;;;;;5.67;1.00;;;-2.90;99.90;;;;;;5054386;28;20202;-72
2021/12/25 08:33:05;;;;;;;1.97;1.37;;;-2.90;99.90;;;;;;5055191;28;20253;-72
2021/12/25 08:35:33;;;;;;;4.00;1.30;;;-2.60;99.90;;;;;;5055961;28;20278;-73
2021/12/25 08:38:00;;;;;;;4.77;1.73;;;-2.80;99.90;;;;;;5058470;28;20727;-72
2021/12/25 08:40:27;;;;;;;3.53;1.77;;;-2.80;99.90;;;;;;5053154;28;20276;-72
2021/12/25 08:42:59;;;;;;;5.47;1.40;;;-2.80;99.90;;;;;;5053225;28;20536;-72
2021/12/25 08:48:12;;;;;;;6.77;1.70;;;-2.80;99.90;;;;;;5053263;28;20657;-72
2021/12/25 08:50:40;;;;;;;1.43;1.10;;;-2.90;99.70;;;;;;5052613;28;20207;-73
2021/12/25 08:53:07;;;;;;;6.63;1.83;;;-2.90;99.30;;;;;;5050042;28;20230;-72
2021/12/25 08:55:34;;;;;;;3.40;1.83;;;-2.90;99.80;;;;;;5048751;28;20206;-73
2021/12/25 08:58:02;;;;;;;6.50;2.07;;;-2.90;99.90;;;;;;5052973;28;20206;-72
2021/12/25 09:00:29;;;;;;;4.73;2.00;;;-2.80;99.90;;;;;;5059281;28;20245;-73
2021/12/25 09:02:56;;;;;;;4.13;1.77;;;-2.80;99.90;;;;;;5048082;28;20287;-72
2021/12/25 09:05:24;;;;;;;6.17;2.23;;;-2.80;99.90;;;;;;5057249;28;20237;-73
2021/12/25 09:07:51;;;;;;;6.13;2.50;;;-2.80;99.20;;;;;;5055890;28;20610;-73
2021/12/25 09:10:19;;;;;;;3.87;2.50;;;-2.80;97.40;;;;;;5054591;28;20273;-73
2021/12/25 09:12:46;;;;;;;5.77;2.10;;;-2.80;98.70;;;;;;5052718;28;20258;-72
2021/12/25 09:15:14;;;;;;;2.77;1.47;;;-2.90;98.70;;;;;;5056587;28;20238;-72
2021/12/25 09:17:42;;;;;;;3.90;2.40;;;-2.90;95.70;;;;;;5057893;28;20269;-72
2021/12/25 09:20:11;;;;;;;3.27;2.13;;;-2.50;96.50;;;;;;5058164;28;20214;-73
2021/12/25 09:22:39;;;;;;;3.57;2.20;;;-2.60;96.50;;;;;;5058256;28;20206;-72
2021/12/25 09:25:07;;;;;;;5.30;1.60;;;-2.70;97.30;;;;;;5055466;28;20654;-73
2021/12/25 09:27:34;;;;;;;3.47;1.90;;;-2.80;96.70;;;;;;5056583;28;20210;-73
2021/12/25 09:30:01;;;;;;;2.47;1.73;;;-2.80;97.20;;;;;;5055170;28;20202;-72
2021/12/25 09:32:28;;;;;;;3.43;1.90;;;-2.70;96.40;;;;;;5055885;28;20203;-73
2021/12/25 09:35:00;;;;;;;3.53;1.30;;;-2.80;95.90;;;;;;5053881;28;20246;-72
2021/12/25 09:37:27;;;;;;;2.40;1.47;;;-2.80;96.00;;;;;;5054634;28;20558;-72
2021/12/25 09:39:55;;;;;;;4.13;1.27;;;-2.80;96.80;;;;;;5061488;28;20259;-73
2021/12/25 09:42:24;;;;;;;2.57;1.70;;;-2.80;95.10;;;;;;5062043;28;20210;-72
2021/12/25 09:44:51;;;;;;;2.27;2.00;;;-2.80;97.20;;;;;;5052902;28;20215;-72
2021/12/25 09:47:18;;;;;;;2.50;1.33;;;-2.70;99.30;;;;;;5050351;28;20293;-72
2021/12/25 09:49:45;;;;;;;5.73;1.90;;;-2.80;94.90;;;;;;5060732;28;20237;-72
2021/12/25 09:52:13;;;;;;;5.23;1.63;;;-2.80;96.40;;;;;;5055007;28;20203;-72
2021/12/25 09:54:40;;;;;;;4.53;1.10;;;-2.80;96.90;;;;;;5062057;28;20567;-72
2021/12/25 09:57:08;;;;;;;4.63;2.20;;;-2.80;96.20;;;;;;5066270;28;20226;-73
2021/12/25 09:59:35;;;;;;;4.93;2.13;;;-2.70;99.20;;;;;;5062533;28;20256;-72
2021/12/25 10:02:03;;;;;;;3.70;2.10;;;-2.70;98.80;;;;;;5056170;28;20198;-72
2021/12/25 10:04:34;;;;;;;7.57;2.00;;;-2.70;97.10;;;;;;5062576;28;20610;-73
2021/12/25 10:07:21;;;;;;;4.43;1.90;;;-2.70;96.90;;;;;;5052193;28;20204;-73
2021/12/25 10:10:06;;;;;;;4.57;1.50;;;-2.70;96.80;;;;;;5056498;28;20266;-72
2021/12/25 10:12:41;;;;;;;1.60;1.10;;;-2.70;99.80;;;;;;5051050;28;20320;-72
2021/12/25 10:15:10;;;;;;;1.83;1.13;;;-2.80;99.70;;;;;;5054140;28;20216;-71
2021/12/25 10:17:49;;;;;;;1.30;1.07;;;-2.80;99.40;;;;;;5047438;28;20253;-72
2021/12/25 10:20:18;;;;;;;2.00;0.60;;;-2.70;99.90;;;;;;5052202;28;20622;-72
2021/12/25 10:23:04;;;;;;;2.70;1.20;;;-2.50;99.00;;;;;;5053626;28;20543;-72
2021/12/25 10:25:38;;;;;;;0.93;0.70;;;-2.10;99.70;;;;;;5061624;28;20599;-71
2021/12/25 10:28:08;;;;;;;1.30;0.40;;;-2.20;99.40;;;;;;5060477;28;20217;-72
2021/12/25 10:30:47;;;;;;;0.67;0.50;;;-2.30;99.90;;;;;;5054600;28;20203;-72
2021/12/25 10:33:37;;;;;;;1.90;0.50;;;-2.50;97.90;;;;;;5066203;28;20240;-72
2021/12/25 10:36:08;;;;;;;2.10;0.43;;;-2.60;95.70;;;;;;5059676;28;20264;-72
2021/12/25 10:38:35;;;;;;;2.07;0.50;;;-2.60;97.50;;;;;;5048382;28;20657;-71
2021/12/25 10:41:18;;;;;;;0.70;0.50;;;-2.60;95.80;;;;;;5053872;28;20207;-72
2021/12/25 10:43:47;;;;;;;2.63;0.87;;;-2.50;96.00;;;;;;5059854;28;20294;-72
2021/12/25 10:46:15;;;;;;;0.73;0.53;;;-2.50;98.00;;;;;;5056437;28;20314;-72
2021/12/25 10:48:42;;;;;;;6.57;1.37;;;-2.50;95.60;;;;;;5061425;28;20680;-72
2021/12/25 10:51:29;;;;;;;2.60;0.63;;;-2.40;96.30;;;;;;5063447;28;20294;-72
2021/12/25 10:53:56;;;;;;;3.83;0.80;;;-2.40;95.90;;;;;;5057069;28;20227;-71
2021/12/25 10:56:33;;;;;;;2.87;1.10;;;-2.50;93.20;;;;;;5059710;28;20673;-73
2021/12/25 10:59:07;;;;;;;4.20;1.10;;;-2.50;94.40;;;;;;5050290;28;20203;-72
2021/12/25 11:01:38;;;;;;;0.87;0.80;;;-2.40;94.70;;;;;;5057055;28;20519;-73
2021/12/25 11:04:06;;;;;;;2.77;1.23;;;-2.30;96.00;;;;;;5053827;28;20290;-73
2021/12/25 11:06:42;;;;;;;2.33;0.93;;;-2.40;95.40;;;;;;5053546;28;20282;-72
2021/12/25 11:09:10;;;;;;;2.07;1.17;;;-2.40;94.60;;;;;;5052340;28;20594;-72
2021/12/25 11:11:37;;;;;;;2.30;0.80;;;-2.40;95.30;;;;;;5055164;28;20195;-72
2021/12/25 11:14:07;;;;;;;0.30;0.30;;;-2.50;95.20;;;;;;5059222;28;20363;-72
2021/12/25 11:16:37;;;;;;;0.90;0.60;;;-2.50;93.50;;;;;;5054842;28;20267;-72
2021/12/25 11:19:09;;;;;;;4.07;1.33;;;-2.40;95.20;;;;;;5056561;28;20206;-73
2021/12/25 11:21:39;;;;;;;3.10;1.20;;;-2.30;97.40;;;;;;5054335;28;20207;-73
2021/12/25 11:24:12;;;;;;;1.50;0.90;;;-2.30;94.60;;;;;;5060393;28;20256;-72
2021/12/25 11:26:43;;;;;;;2.70;0.80;;;-2.30;96.80;;;;;;5052889;28;20249;-73
2021/12/25 11:29:13;;;;;;;3.10;1.23;;;-2.30;97.40;;;;;;5049495;28;20265;-73
2021/12/25 11:31:41;;;;;;;1.37;0.97;;;-2.20;97.10;;;;;;5051645;28;20234;-73
2021/12/25 11:34:09;;;;;;;2.20;1.10;;;-2.30;93.40;;;;;;5059361;28;20227;-72
2021/12/25 11:36:39;;;;;;;2.47;1.23;;;-2.30;93.80;;;;;;5053909;28;20209;-72
2021/12/25 11:39:07;;;;;;;2.13;0.83;;;-1.90;92.50;;;;;;5056893;28;20276;-72
2021/12/25 11:41:36;;;;;;;2.57;1.40;;;-2.00;91.80;;;;;;5054403;28;20211;-73
2021/12/25 11:44:06;;;;;;;1.30;1.00;;;-2.20;93.20;;;;;;5050349;28;20211;-72
2021/12/25 11:46:45;;;;;;;1.07;0.70;;;-2.20;94.20;;;;;;5048100;28;20723;-73
2021/12/25 11:49:15;;;;;;;2.20;0.70;;;-2.10;97.90;;;;;;5048770;28;20547;-72
2021/12/25 11:51:44;;;;;;;4.13;1.13;;;-2.20;97.30;;;;;;5045093;28;20252;-73
2021/12/25 11:54:43;;;;;;;3.17;1.30;;;-2.10;96.60;;;;;;5047719;28;20218;-73
2021/12/25 11:57:34;;;;;;;3.27;1.40;;;-2.20;94.10;;;;;;5045241;28;20228;-72
2021/12/25 12:00:00;;;;;;;3.10;1.37;;;-2.20;95.00;;;;;;5044605;28;20229;-72
2021/12/25 12:02:42;;;;;;;1.53;0.70;;;-2.10;96.40;;;;;;5045988;28;20297;-72
2021/12/25 12:05:24;;;;;;;0.83;0.60;;;-2.00;94.90;;;;;;5046641;28;20544;-72
2021/12/25 12:07:59;;;;;;;1.77;0.73;;;-1.90;95.20;;;;;;5044705;28;20207;-73
2021/12/25 12:10:56;;;;;;;2.13;1.43;;;-1.80;92.80;;;;;;5045873;28;20202;-73
2021/12/25 12:13:26;;;;;;;5.07;1.37;;;-1.90;96.20;;;;;;5041231;28;20284;-73
2021/12/25 12:15:55;;;;;;;0.77;0.50;;;-1.50;96.30;;;;;;5046701;28;20214;-73
2021/12/25 12:18:38;;;;;;;5.30;1.67;;;-1.60;93.90;;;;;;5046135;28;20260;-73
2021/12/25 12:21:33;;;;;;;3.00;1.43;;;-1.70;96.30;;;;;;5070552;22;20241;-65
2021/12/25 12:24:28;;;;;;;2.20;1.33;;;-1.80;94.70;;;;;;5065001;28;20225;-65
2021/12/25 12:26:55;;;;;;;5.33;1.40;;;-1.90;96.30;;;;;;5066502;28;20289;-65
2021/12/25 12:29:49;;;;;;;2.90;1.50;;;-1.70;93.40;;;;;;5065572;28;20678;-65
2021/12/25 12:32:44;;;;;;;1.83;1.23;;;-1.50;92.70;;;;;;5066299;28;20228;-65
2021/12/25 12:35:33;;;;;;;1.80;1.10;;;-1.80;90.50;;;;;;5019049;28;20232;-65
2021/12/25 12:38:31;;;;;;;3.20;1.10;;;-1.80;91.10;;;;;;5065964;28;20558;-65
2021/12/25 12:41:13;;;;;;;1.60;0.93;;;-1.40;90.90;;;;;;5070906;28;20202;-65
2021/12/25 12:43:55;;;;;;;1.60;0.80;;;-1.40;87.60;;;;;;5072694;28;20206;-65
2021/12/25 12:46:22;;;;;;;5.30;1.80;;;-1.30;89.90;;;;;;5073228;28;20582;-65
2021/12/25 12:49:06;;;;;;;2.03;0.87;;;-0.70;88.00;;;;;;5072291;28;20216;-65
2021/12/25 12:51:36;;;;;;;0.97;0.87;;;-0.80;80.70;;;;;;5073544;28;20591;-65
2021/12/25 12:54:03;;;;;;;1.90;1.20;;;-0.60;78.70;;;;;;5072651;28;20217;-65
2021/12/25 12:56:31;;;;;;;1.53;1.43;;;-1.00;85.20;;;;;;5072677;28;20206;-65
2021/12/25 12:58:58;;;;;;;1.33;1.10;;;-1.60;89.00;;;;;;5072983;28;20205;-65
2021/12/25 13:01:27;;;;;;;0.80;0.47;;;-1.80;86.40;;;;;;5072290;28;20202;-65
2021/12/25 13:03:58;;;;;;;1.00;0.90;;;-2.00;92.30;;;;;;5073332;28;20199;-65
2021/12/25 13:06:27;;;;;;;2.67;0.63;;;-1.70;93.90;;;;;;5072756;28;20670;-65
2021/12/25 13:08:59;;;;;;;3.50;1.23;;;-1.70;93.90;;;;;;5072581;28;20650;-65
2021/12/25 13:11:30;;;;;;;2.07;0.83;;;-1.50;91.70;;;;;;5071983;28;20682;-65
2021/12/25 13:14:00;;;;;;;1.00;0.50;;;-1.30;91.00;;;;;;5071782;28;20217;-65
2021/12/25 13:16:36;;;;;;;1.30;0.80;;;-1.50;90.70;;;;;;5071692;28;20220;-66
2021/12/25 13:19:05;;;;;;;3.17;1.03;;;-0.60;87.80;;;;;;5072568;28;20285;-65
2021/12/25 13:21:33;;;;;;;3.40;1.00;;;-0.70;85.10;;;;;;5069857;28;20213;-65
2021/12/25 13:24:05;;;;;;;3.17;1.10;;;-1.60;87.40;;;;;;5069260;28;20668;-66
2021/12/25 13:26:37;;;;;;;1.93;1.00;;;-1.90;93.30;;;;;;5070578;28;20237;-65
2021/12/25 13:29:07;;;;;;;2.60;1.00;;;-2.10;92.90;;;;;;5074964;28;20237;-65
2021/12/25 13:31:35;;;;;;;2.17;1.20;;;-2.20;93.60;;;;;;5072895;28;20202;-65
2021/12/25 13:34:05;;;;;;;3.57;1.33;;;-2.20;94.60;;;;;;5076965;28;20217;-65
2021/12/25 13:36:34;;;;;;;4.70;0.87;;;-2.20;93.00;;;;;;5074868;28;20248;-65
2021/12/25 13:39:05;;;;;;;2.83;1.50;;;-2.00;93.70;;;;;;5075518;28;20251;-66
2021/12/25 13:41:35;;;;;;;2.03;1.00;;;-2.10;91.40;;;;;;5071834;28;20569;-65
2021/12/25 13:44:12;;;;;;;5.20;1.27;;;-1.90;91.50;;;;;;5073445;28;20202;-65
2021/12/25 13:46:42;;;;;;;3.83;1.10;;;-2.10;89.40;;;;;;5073177;28;20202;-65
2021/12/25 13:49:31;;;;;;;1.83;1.23;;;-2.30;92.70;;;;;;5074220;28;20217;-65
2021/12/25 13:52:00;;;;;;;1.13;0.93;;;-2.30;92.80;;;;;;5072461;28;20209;-66
2021/12/25 13:54:29;;;;;;;4.13;0.93;;;-2.30;92.90;;;;;;5072734;28;20214;-65
2021/12/25 13:56:57;;;;;;;2.33;0.77;;;-2.30;92.00;;;;;;5072534;28;20205;-65